Home   Weather   Germany   Kamp-Lintfort   Past weeks
Flag for Germany

Past Weather in Kamp-Lintfort, North Rhine-Westphalia, Germany — Yesterday and Last 2 Weeks

Currently: 50 °F. Clear. (Weather station: Duesseldorf, Germany). See more current weather

Past Weather in Kamp-Lintfort — Graph

°F

Kamp-Lintfort Temperature Yesterday

Maximum temperature yesterday: 73 °F (at 4:50 pm)
Minimum temperature yesterday: 46 °F (at 5:20 am)
Average temperature yesterday: 62 °F

High & Low Weather Summary for the Past Weeks

 TemperatureHumidityPressure
High82 °F (Jun 2, 4:50 pm)100% (May 30, 4:20 am)30.36 "Hg (May 30, 4:20 am)
Low43 °F (May 30, 5:20 am)25% (Jun 2, 5:20 pm)29.92 "Hg (Jun 2, 5:50 pm)
Average66 °F69%30.15 "Hg
* Reported May 30 4:20 am — Jun 14 4:50 am, Kamp-Lintfort. Weather by CustomWeather, © 2021

Note: Actual official high and low records may vary slightly from our data, if they occured in-between our weather recording intervals... More about our weather records

Kamp-Lintfort Weather History for the Previous 24 Hours

Scroll right to see more
 ConditionsComfort  
Time TempWeatherWind HumidityBarometerVisibility
4:50 am
Mon, Jun 14
50 °FClear.2 mph88%30.21 "Hg10 mi
4:20 am52 °FClear.3 mph82%30.21 "Hg10 mi
3:50 am54 °FClear.2 mph77%30.21 "Hg10 mi
3:20 am54 °FClear.2 mph77%30.21 "Hg10 mi
2:50 am52 °FClear.5 mph82%30.24 "Hg10 mi
2:20 am54 °FClear.3 mph82%30.24 "Hg10 mi
1:50 am54 °FClear.2 mph82%30.24 "Hg10 mi
1:20 am54 °FClear.1 mph82%30.24 "Hg10 mi
12:50 am55 °FClear.2 mph82%30.24 "Hg10 mi
12:20 am55 °FClear.3 mph82%30.24 "Hg10 mi
11:50 pm
Sun, Jun 13
55 °FClear.3 mph82%30.27 "Hg10 mi
11:20 pm59 °FClear.2 mph77%30.27 "Hg10 mi
10:50 pm61 °FClear.2 mph72%30.27 "Hg10 mi
10:20 pm63 °FClear.3 mph68%30.27 "Hg10 mi
9:50 pm64 °FClear.3 mph64%30.27 "Hg10 mi
9:20 pm70 °FSunny.3 mph46%30.27 "Hg10 mi
8:50 pm72 °FSunny.3 mph44%30.27 "Hg10 mi
8:20 pm73 °FSunny.5 mph41%30.27 "Hg10 mi
7:50 pm73 °FPassing clouds.5 mph38%30.27 "HgN/A
7:20 pm73 °FPassing clouds.6 mph38%30.30 "HgN/A
6:50 pm73 °FPassing clouds.5 mph38%30.30 "HgN/A
6:20 pm73 °FSunny.5 mph36%30.30 "Hg10 mi
5:50 pm73 °FSunny.3 mph38%30.30 "Hg10 mi
5:20 pm73 °FPassing clouds.6 mph36%30.30 "HgN/A
4:50 pm73 °FPassing clouds.9 mph36%30.30 "HgN/A
4:20 pm72 °FSunny.5 mph41%30.33 "Hg10 mi
3:50 pm72 °FPassing clouds.5 mph44%30.33 "HgN/A
3:20 pm70 °FSunny.5 mph40%30.33 "Hg10 mi
2:50 pm70 °FSunny.6 mph43%30.33 "Hg10 mi
2:20 pm70 °FSunny.6 mph43%30.36 "Hg10 mi
1:50 pm70 °FSunny.3 mph46%30.36 "Hg10 mi
1:20 pm68 °FSunny.3 mph43%30.36 "Hg10 mi
12:50 pm66 °FSunny.3 mph46%30.36 "Hg10 mi
12:20 pm66 °FSunny.3 mph46%30.36 "Hg10 mi
11:50 am66 °FSunny.3 mph43%30.36 "Hg10 mi
11:20 am64 °FPassing clouds.3 mph49%30.36 "HgN/A
10:50 am64 °FPassing clouds.5 mph49%30.36 "HgN/A
10:20 am64 °FPassing clouds.5 mph52%30.36 "HgN/A
9:50 am63 °FPassing clouds.5 mph52%30.36 "HgN/A
9:20 am61 °FPassing clouds.5 mph55%30.36 "HgN/A
8:50 am59 °FPassing clouds.3 mph63%30.36 "HgN/A
8:20 am59 °FPassing clouds.3 mph63%30.36 "HgN/A
7:50 am57 °FPassing clouds.3 mph72%30.33 "HgN/A
7:20 am55 °FSunny.2 mph82%30.33 "Hg10 mi
6:50 am54 °FSunny.2 mph88%30.33 "Hg10 mi
6:20 am48 °FSunny.2 mph94%30.33 "Hg10 mi
5:50 am48 °FSunny.1 mph94%30.30 "Hg10 mi
5:20 am46 °FPassing clouds.2 mph93%30.30 "HgN/A
Weather by CustomWeather, © 2021

See weather overview